sensor_id;sensor_type;location;lat;lon;timestamp;P1;durP1;ratioP1;P2;durP2;ratioP2
55320;SDS011;41184;44.272;19.890;2022-10-22T00:02:25;17.77;;;13.38;;
55320;SDS011;41184;44.272;19.890;2022-10-22T00:04:52;19.05;;;13.05;;
55320;SDS011;41184;44.272;19.890;2022-10-22T00:07:20;18.85;;;14.70;;
55320;SDS011;41184;44.272;19.890;2022-10-22T00:09:47;16.15;;;11.98;;
55320;SDS011;41184;44.272;19.890;2022-10-22T00:12:14;19.77;;;13.40;;
55320;SDS011;41184;44.272;19.890;2022-10-22T00:14:40;20.20;;;13.18;;
55320;SDS011;41184;44.272;19.890;2022-10-22T00:17:06;20.40;;;14.05;;
55320;SDS011;41184;44.272;19.890;2022-10-22T00:19:32;20.15;;;14.82;;
55320;SDS011;41184;44.272;19.890;2022-10-22T00:21:58;21.90;;;15.30;;
55320;SDS011;41184;44.272;19.890;2022-10-22T00:24:25;23.00;;;17.33;;
55320;SDS011;41184;44.272;19.890;2022-10-22T00:26:51;28.08;;;18.60;;
55320;SDS011;41184;44.272;19.890;2022-10-22T00:29:17;31.30;;;19.23;;
55320;SDS011;41184;44.272;19.890;2022-10-22T00:31:45;24.77;;;18.20;;
55320;SDS011;41184;44.272;19.890;2022-10-22T00:34:17;23.75;;;15.88;;
55320;SDS011;41184;44.272;19.890;2022-10-22T00:36:45;21.65;;;13.68;;
55320;SDS011;41184;44.272;19.890;2022-10-22T00:39:11;16.38;;;12.25;;
55320;SDS011;41184;44.272;19.890;2022-10-22T00:41:40;23.65;;;14.35;;
55320;SDS011;41184;44.272;19.890;2022-10-22T00:44:06;18.40;;;13.68;;
55320;SDS011;41184;44.272;19.890;2022-10-22T00:46:32;19.20;;;12.48;;
55320;SDS011;41184;44.272;19.890;2022-10-22T00:48:59;16.20;;;12.23;;
55320;SDS011;41184;44.272;19.890;2022-10-22T00:51:30;20.67;;;12.57;;
55320;SDS011;41184;44.272;19.890;2022-10-22T00:53:59;18.23;;;12.93;;
55320;SDS011;41184;44.272;19.890;2022-10-22T00:56:27;20.15;;;13.45;;
55320;SDS011;41184;44.272;19.890;2022-10-22T00:58:55;21.35;;;13.73;;
55320;SDS011;41184;44.272;19.890;2022-10-22T01:01:28;19.67;;;13.55;;
55320;SDS011;41184;44.272;19.890;2022-10-22T01:03:55;18.30;;;12.63;;
55320;SDS011;41184;44.272;19.890;2022-10-22T01:06:30;15.57;;;12.35;;
55320;SDS011;41184;44.272;19.890;2022-10-22T01:21:43;16.38;;;10.23;;
55320;SDS011;41184;44.272;19.890;2022-10-22T01:24:17;12.43;;;9.57;;
55320;SDS011;41184;44.272;19.890;2022-10-22T01:29:45;13.93;;;10.25;;
55320;SDS011;41184;44.272;19.890;2022-10-22T01:32:14;15.27;;;11.98;;
55320;SDS011;41184;44.272;19.890;2022-10-22T01:34:42;16.08;;;11.50;;
55320;SDS011;41184;44.272;19.890;2022-10-22T01:37:09;16.55;;;10.65;;
55320;SDS011;41184;44.272;19.890;2022-10-22T01:39:37;18.52;;;11.55;;
55320;SDS011;41184;44.272;19.890;2022-10-22T01:42:04;19.98;;;13.00;;
55320;SDS011;41184;44.272;19.890;2022-10-22T01:44:38;14.93;;;10.73;;
55320;SDS011;41184;44.272;19.890;2022-10-22T01:47:13;14.23;;;10.65;;
55320;SDS011;41184;44.272;19.890;2022-10-22T01:54:58;22.20;;;12.77;;
55320;SDS011;41184;44.272;19.890;2022-10-22T02:00:07;21.58;;;13.05;;
55320;SDS011;41184;44.272;19.890;2022-10-22T02:02:42;18.55;;;13.70;;
55320;SDS011;41184;44.272;19.890;2022-10-22T02:05:12;21.25;;;13.40;;
55320;SDS011;41184;44.272;19.890;2022-10-22T02:07:45;20.55;;;14.07;;
55320;SDS011;41184;44.272;19.890;2022-10-22T02:10:12;23.95;;;16.05;;
55320;SDS011;41184;44.272;19.890;2022-10-22T02:12:39;21.88;;;15.25;;
55320;SDS011;41184;44.272;19.890;2022-10-22T02:15:06;31.10;;;16.65;;
55320;SDS011;41184;44.272;19.890;2022-10-22T02:17:33;20.70;;;15.27;;
55320;SDS011;41184;44.272;19.890;2022-10-22T02:20:00;16.67;;;11.82;;
55320;SDS011;41184;44.272;19.890;2022-10-22T02:22:28;15.82;;;11.07;;
55320;SDS011;41184;44.272;19.890;2022-10-22T02:24:54;18.20;;;13.20;;
55320;SDS011;41184;44.272;19.890;2022-10-22T02:32:17;13.13;;;9.10;;
55320;SDS011;41184;44.272;19.890;2022-10-22T02:34:44;15.40;;;9.63;;
55320;SDS011;41184;44.272;19.890;2022-10-22T02:37:11;12.93;;;9.52;;
55320;SDS011;41184;44.272;19.890;2022-10-22T02:39:37;15.77;;;10.32;;
55320;SDS011;41184;44.272;19.890;2022-10-22T02:42:04;16.83;;;9.50;;
55320;SDS011;41184;44.272;19.890;2022-10-22T02:44:30;13.98;;;10.05;;
55320;SDS011;41184;44.272;19.890;2022-10-22T02:46:56;25.88;;;15.48;;
55320;SDS011;41184;44.272;19.890;2022-10-22T02:49:23;13.02;;;10.18;;
55320;SDS011;41184;44.272;19.890;2022-10-22T02:51:49;15.73;;;10.35;;
55320;SDS011;41184;44.272;19.890;2022-10-22T02:54:15;21.08;;;10.90;;
55320;SDS011;41184;44.272;19.890;2022-10-22T02:56:41;16.15;;;10.15;;
55320;SDS011;41184;44.272;19.890;2022-10-22T02:59:07;14.13;;;10.00;;
55320;SDS011;41184;44.272;19.890;2022-10-22T03:01:33;14.57;;;10.05;;
55320;SDS011;41184;44.272;19.890;2022-10-22T03:03:59;16.13;;;9.60;;
55320;SDS011;41184;44.272;19.890;2022-10-22T03:06:25;15.10;;;9.80;;
55320;SDS011;41184;44.272;19.890;2022-10-22T03:08:51;23.52;;;13.45;;
55320;SDS011;41184;44.272;19.890;2022-10-22T03:11:17;17.70;;;12.13;;
55320;SDS011;41184;44.272;19.890;2022-10-22T03:13:43;24.02;;;17.65;;
55320;SDS011;41184;44.272;19.890;2022-10-22T03:16:09;25.83;;;17.52;;
55320;SDS011;41184;44.272;19.890;2022-10-22T03:18:36;21.08;;;11.88;;
55320;SDS011;41184;44.272;19.890;2022-10-22T03:23:30;17.90;;;11.82;;
55320;SDS011;41184;44.272;19.890;2022-10-22T03:25:57;17.55;;;11.75;;
55320;SDS011;41184;44.272;19.890;2022-10-22T03:28:23;15.00;;;11.57;;
55320;SDS011;41184;44.272;19.890;2022-10-22T03:30:51;17.10;;;10.60;;
55320;SDS011;41184;44.272;19.890;2022-10-22T03:33:17;16.17;;;11.77;;
55320;SDS011;41184;44.272;19.890;2022-10-22T03:35:44;14.20;;;9.90;;
55320;SDS011;41184;44.272;19.890;2022-10-22T03:38:11;16.23;;;11.23;;
55320;SDS011;41184;44.272;19.890;2022-10-22T03:40:38;15.07;;;11.13;;
55320;SDS011;41184;44.272;19.890;2022-10-22T03:43:04;15.40;;;9.60;;
55320;SDS011;41184;44.272;19.890;2022-10-22T03:45:30;16.45;;;10.15;;
55320;SDS011;41184;44.272;19.890;2022-10-22T03:47:56;20.65;;;10.63;;
55320;SDS011;41184;44.272;19.890;2022-10-22T03:50:22;12.95;;;9.73;;
55320;SDS011;41184;44.272;19.890;2022-10-22T03:52:48;16.45;;;10.25;;
55320;SDS011;41184;44.272;19.890;2022-10-22T03:55:15;15.25;;;10.82;;
55320;SDS011;41184;44.272;19.890;2022-10-22T03:57:41;16.05;;;10.18;;
55320;SDS011;41184;44.272;19.890;2022-10-22T04:00:07;11.70;;;9.45;;
55320;SDS011;41184;44.272;19.890;2022-10-22T04:02:33;14.45;;;10.65;;
55320;SDS011;41184;44.272;19.890;2022-10-22T04:04:59;15.15;;;10.48;;
55320;SDS011;41184;44.272;19.890;2022-10-22T04:07:25;19.48;;;12.05;;
55320;SDS011;41184;44.272;19.890;2022-10-22T04:09:51;20.33;;;12.88;;
55320;SDS011;41184;44.272;19.890;2022-10-22T04:12:17;21.88;;;13.93;;
55320;SDS011;41184;44.272;19.890;2022-10-22T04:14:43;20.55;;;12.80;;
55320;SDS011;41184;44.272;19.890;2022-10-22T04:17:10;18.00;;;10.80;;
55320;SDS011;41184;44.272;19.890;2022-10-22T04:19:36;14.82;;;9.93;;
55320;SDS011;41184;44.272;19.890;2022-10-22T04:22:02;19.40;;;11.00;;
55320;SDS011;41184;44.272;19.890;2022-10-22T04:24:28;15.65;;;9.98;;
55320;SDS011;41184;44.272;19.890;2022-10-22T04:26:55;15.50;;;9.05;;
55320;SDS011;41184;44.272;19.890;2022-10-22T04:29:21;10.68;;;8.52;;
55320;SDS011;41184;44.272;19.890;2022-10-22T04:31:47;20.67;;;9.38;;
55320;SDS011;41184;44.272;19.890;2022-10-22T04:34:14;13.05;;;8.75;;
55320;SDS011;41184;44.272;19.890;2022-10-22T04:36:40;17.65;;;12.48;;
55320;SDS011;41184;44.272;19.890;2022-10-22T04:39:06;17.33;;;9.93;;
55320;SDS011;41184;44.272;19.890;2022-10-22T04:41:33;25.80;;;16.63;;
55320;SDS011;41184;44.272;19.890;2022-10-22T04:43:59;17.15;;;11.10;;
55320;SDS011;41184;44.272;19.890;2022-10-22T04:46:26;17.67;;;11.90;;
55320;SDS011;41184;44.272;19.890;2022-10-22T04:48:53;16.38;;;11.27;;
55320;SDS011;41184;44.272;19.890;2022-10-22T04:51:19;18.98;;;12.00;;
55320;SDS011;41184;44.272;19.890;2022-10-22T04:53:46;27.27;;;16.02;;
55320;SDS011;41184;44.272;19.890;2022-10-22T04:56:13;22.10;;;15.20;;
55320;SDS011;41184;44.272;19.890;2022-10-22T04:58:46;29.40;;;19.60;;
55320;SDS011;41184;44.272;19.890;2022-10-22T05:01:14;37.47;;;22.02;;
55320;SDS011;41184;44.272;19.890;2022-10-22T05:03:40;24.13;;;17.30;;
55320;SDS011;41184;44.272;19.890;2022-10-22T05:06:06;24.75;;;14.95;;
55320;SDS011;41184;44.272;19.890;2022-10-22T05:08:32;22.30;;;14.57;;
55320;SDS011;41184;44.272;19.890;2022-10-22T05:10:58;23.83;;;15.32;;
55320;SDS011;41184;44.272;19.890;2022-10-22T05:13:25;29.77;;;20.98;;
55320;SDS011;41184;44.272;19.890;2022-10-22T05:15:51;31.63;;;16.40;;
55320;SDS011;41184;44.272;19.890;2022-10-22T05:18:17;25.83;;;16.85;;
55320;SDS011;41184;44.272;19.890;2022-10-22T05:20:43;26.58;;;15.82;;
55320;SDS011;41184;44.272;19.890;2022-10-22T05:23:09;22.40;;;14.30;;
55320;SDS011;41184;44.272;19.890;2022-10-22T05:25:36;22.23;;;14.18;;
55320;SDS011;41184;44.272;19.890;2022-10-22T05:28:02;20.67;;;11.90;;
55320;SDS011;41184;44.272;19.890;2022-10-22T05:30:28;25.83;;;12.98;;
55320;SDS011;41184;44.272;19.890;2022-10-22T05:32:54;23.25;;;14.07;;
55320;SDS011;41184;44.272;19.890;2022-10-22T05:35:20;24.52;;;12.23;;
55320;SDS011;41184;44.272;19.890;2022-10-22T05:37:46;23.65;;;12.57;;
55320;SDS011;41184;44.272;19.890;2022-10-22T05:40:12;17.52;;;12.48;;
55320;SDS011;41184;44.272;19.890;2022-10-22T05:42:38;20.92;;;13.57;;
55320;SDS011;41184;44.272;19.890;2022-10-22T05:45:05;22.92;;;15.85;;
55320;SDS011;41184;44.272;19.890;2022-10-22T05:47:32;43.22;;;23.35;;
55320;SDS011;41184;44.272;19.890;2022-10-22T05:49:58;31.95;;;17.45;;
55320;SDS011;41184;44.272;19.890;2022-10-22T05:52:24;30.63;;;16.80;;
55320;SDS011;41184;44.272;19.890;2022-10-22T05:54:51;28.30;;;16.95;;
55320;SDS011;41184;44.272;19.890;2022-10-22T05:57:17;36.85;;;18.40;;
55320;SDS011;41184;44.272;19.890;2022-10-22T05:59:43;32.05;;;20.20;;
55320;SDS011;41184;44.272;19.890;2022-10-22T06:02:09;42.90;;;26.73;;
55320;SDS011;41184;44.272;19.890;2022-10-22T06:04:35;54.65;;;34.15;;
55320;SDS011;41184;44.272;19.890;2022-10-22T06:07:01;52.40;;;32.50;;
55320;SDS011;41184;44.272;19.890;2022-10-22T06:09:29;41.45;;;26.52;;
55320;SDS011;41184;44.272;19.890;2022-10-22T06:11:56;51.25;;;29.17;;
55320;SDS011;41184;44.272;19.890;2022-10-22T06:14:23;38.03;;;21.17;;
55320;SDS011;41184;44.272;19.890;2022-10-22T06:16:49;29.45;;;19.27;;
55320;SDS011;41184;44.272;19.890;2022-10-22T06:19:16;28.42;;;14.07;;
55320;SDS011;41184;44.272;19.890;2022-10-22T06:21:43;22.27;;;14.20;;
55320;SDS011;41184;44.272;19.890;2022-10-22T06:24:09;23.05;;;12.52;;
55320;SDS011;41184;44.272;19.890;2022-10-22T06:26:35;21.40;;;11.43;;
55320;SDS011;41184;44.272;19.890;2022-10-22T06:29:02;28.95;;;14.38;;
55320;SDS011;41184;44.272;19.890;2022-10-22T06:31:28;28.05;;;14.50;;
55320;SDS011;41184;44.272;19.890;2022-10-22T06:34:00;24.65;;;16.58;;
55320;SDS011;41184;44.272;19.890;2022-10-22T06:36:26;32.90;;;20.83;;
55320;SDS011;41184;44.272;19.890;2022-10-22T06:38:53;29.27;;;18.90;;
55320;SDS011;41184;44.272;19.890;2022-10-22T06:41:19;26.05;;;14.98;;
55320;SDS011;41184;44.272;19.890;2022-10-22T06:43:45;27.88;;;13.45;;
55320;SDS011;41184;44.272;19.890;2022-10-22T06:46:13;22.05;;;12.23;;
55320;SDS011;41184;44.272;19.890;2022-10-22T06:48:46;24.48;;;11.68;;
55320;SDS011;41184;44.272;19.890;2022-10-22T06:51:13;17.40;;;10.93;;
55320;SDS011;41184;44.272;19.890;2022-10-22T06:53:39;17.42;;;9.35;;
55320;SDS011;41184;44.272;19.890;2022-10-22T06:56:05;17.98;;;10.35;;
55320;SDS011;41184;44.272;19.890;2022-10-22T06:58:32;21.27;;;11.30;;
55320;SDS011;41184;44.272;19.890;2022-10-22T07:01:05;24.83;;;10.93;;
55320;SDS011;41184;44.272;19.890;2022-10-22T07:03:31;13.60;;;8.77;;
55320;SDS011;41184;44.272;19.890;2022-10-22T07:05:58;12.45;;;7.80;;
55320;SDS011;41184;44.272;19.890;2022-10-22T07:08:24;16.55;;;8.70;;
55320;SDS011;41184;44.272;19.890;2022-10-22T07:10:51;32.28;;;9.07;;
55320;SDS011;41184;44.272;19.890;2022-10-22T07:13:17;18.27;;;9.68;;
55320;SDS011;41184;44.272;19.890;2022-10-22T07:15:43;20.92;;;10.05;;
55320;SDS011;41184;44.272;19.890;2022-10-22T07:18:09;25.25;;;11.38;;
55320;SDS011;41184;44.272;19.890;2022-10-22T07:20:35;21.55;;;10.77;;
55320;SDS011;41184;44.272;19.890;2022-10-22T07:23:01;18.48;;;10.05;;
55320;SDS011;41184;44.272;19.890;2022-10-22T07:25:27;17.20;;;11.73;;
55320;SDS011;41184;44.272;19.890;2022-10-22T07:27:53;20.20;;;10.65;;
55320;SDS011;41184;44.272;19.890;2022-10-22T07:30:19;21.17;;;11.05;;
55320;SDS011;41184;44.272;19.890;2022-10-22T07:32:45;19.63;;;11.95;;
55320;SDS011;41184;44.272;19.890;2022-10-22T07:35:11;19.42;;;10.90;;
55320;SDS011;41184;44.272;19.890;2022-10-22T07:37:37;28.27;;;13.02;;
55320;SDS011;41184;44.272;19.890;2022-10-22T07:40:03;28.05;;;12.15;;
55320;SDS011;41184;44.272;19.890;2022-10-22T07:42:29;55.25;;;36.03;;
55320;SDS011;41184;44.272;19.890;2022-10-22T07:44:56;76.25;;;42.78;;
55320;SDS011;41184;44.272;19.890;2022-10-22T07:47:22;22.33;;;12.95;;
55320;SDS011;41184;44.272;19.890;2022-10-22T07:49:48;50.05;;;29.73;;
55320;SDS011;41184;44.272;19.890;2022-10-22T07:52:14;56.00;;;34.13;;
55320;SDS011;41184;44.272;19.890;2022-10-22T07:54:40;23.13;;;15.13;;
55320;SDS011;41184;44.272;19.890;2022-10-22T07:57:06;20.58;;;12.88;;
55320;SDS011;41184;44.272;19.890;2022-10-22T07:59:32;21.13;;;12.20;;
55320;SDS011;41184;44.272;19.890;2022-10-22T08:01:58;19.45;;;12.02;;
55320;SDS011;41184;44.272;19.890;2022-10-22T08:04:24;27.58;;;14.30;;
55320;SDS011;41184;44.272;19.890;2022-10-22T08:06:50;56.33;;;50.97;;
55320;SDS011;41184;44.272;19.890;2022-10-22T08:09:16;25.42;;;18.48;;
55320;SDS011;41184;44.272;19.890;2022-10-22T08:11:42;27.65;;;18.80;;
55320;SDS011;41184;44.272;19.890;2022-10-22T08:14:09;56.55;;;32.47;;
55320;SDS011;41184;44.272;19.890;2022-10-22T08:16:35;27.38;;;12.93;;
55320;SDS011;41184;44.272;19.890;2022-10-22T08:19:02;171.52;;;116.50;;
55320;SDS011;41184;44.272;19.890;2022-10-22T08:21:28;34.17;;;21.17;;
55320;SDS011;41184;44.272;19.890;2022-10-22T08:23:54;50.85;;;24.60;;
55320;SDS011;41184;44.272;19.890;2022-10-22T08:26:20;16.15;;;11.45;;
55320;SDS011;41184;44.272;19.890;2022-10-22T08:28:46;17.63;;;10.18;;
55320;SDS011;41184;44.272;19.890;2022-10-22T08:31:12;19.50;;;12.18;;
55320;SDS011;41184;44.272;19.890;2022-10-22T08:33:38;26.08;;;14.30;;
55320;SDS011;41184;44.272;19.890;2022-10-22T08:36:05;52.55;;;33.50;;
55320;SDS011;41184;44.272;19.890;2022-10-22T08:38:31;23.65;;;15.68;;
55320;SDS011;41184;44.272;19.890;2022-10-22T08:41:07;31.52;;;22.77;;
55320;SDS011;41184;44.272;19.890;2022-10-22T08:48:57;24.55;;;14.45;;
55320;SDS011;41184;44.272;19.890;2022-10-22T08:51:25;29.67;;;19.08;;
55320;SDS011;41184;44.272;19.890;2022-10-22T08:56:25;22.33;;;10.18;;
55320;SDS011;41184;44.272;19.890;2022-10-22T08:58:55;24.95;;;17.77;;
55320;SDS011;41184;44.272;19.890;2022-10-22T09:01:34;27.77;;;20.80;;
55320;SDS011;41184;44.272;19.890;2022-10-22T09:06:28;33.38;;;23.48;;
55320;SDS011;41184;44.272;19.890;2022-10-22T09:08:56;53.25;;;32.10;;
55320;SDS011;41184;44.272;19.890;2022-10-22T09:13:52;60.75;;;39.97;;
55320;SDS011;41184;44.272;19.890;2022-10-22T09:24:05;36.13;;;24.25;;
55320;SDS011;41184;44.272;19.890;2022-10-22T09:26:36;35.55;;;22.10;;
55320;SDS011;41184;44.272;19.890;2022-10-22T09:29:03;32.30;;;19.17;;
55320;SDS011;41184;44.272;19.890;2022-10-22T09:31:30;33.50;;;19.38;;
55320;SDS011;41184;44.272;19.890;2022-10-22T09:33:56;28.83;;;16.70;;
55320;SDS011;41184;44.272;19.890;2022-10-22T09:36:23;41.05;;;24.70;;
55320;SDS011;41184;44.272;19.890;2022-10-22T09:38:50;55.25;;;37.33;;
55320;SDS011;41184;44.272;19.890;2022-10-22T09:41:22;36.47;;;20.00;;
55320;SDS011;41184;44.272;19.890;2022-10-22T09:46:15;26.00;;;15.07;;
55320;SDS011;41184;44.272;19.890;2022-10-22T09:48:42;32.92;;;20.25;;
55320;SDS011;41184;44.272;19.890;2022-10-22T09:51:14;53.78;;;36.47;;
55320;SDS011;41184;44.272;19.890;2022-10-22T09:53:41;51.20;;;32.72;;
55320;SDS011;41184;44.272;19.890;2022-10-22T09:56:09;42.90;;;27.00;;
55320;SDS011;41184;44.272;19.890;2022-10-22T09:58:45;16.52;;;9.85;;
55320;SDS011;41184;44.272;19.890;2022-10-22T10:01:26;21.15;;;11.70;;
55320;SDS011;41184;44.272;19.890;2022-10-22T10:03:52;24.30;;;12.13;;
55320;SDS011;41184;44.272;19.890;2022-10-22T10:06:19;30.05;;;19.45;;
55320;SDS011;41184;44.272;19.890;2022-10-22T10:08:46;28.77;;;15.90;;
55320;SDS011;41184;44.272;19.890;2022-10-22T10:18:46;18.55;;;11.23;;
55320;SDS011;41184;44.272;19.890;2022-10-22T10:38:37;22.17;;;14.50;;
55320;SDS011;41184;44.272;19.890;2022-10-22T10:49:02;20.05;;;12.80;;
55320;SDS011;41184;44.272;19.890;2022-10-22T11:08:03;15.05;;;7.78;;
55320;SDS011;41184;44.272;19.890;2022-10-22T11:10:32;23.73;;;15.25;;
55320;SDS011;41184;44.272;19.890;2022-10-22T11:13:05;12.85;;;8.45;;
55320;SDS011;41184;44.272;19.890;2022-10-22T11:15:34;18.33;;;12.02;;
55320;SDS011;41184;44.272;19.890;2022-10-22T11:18:17;14.40;;;11.45;;
55320;SDS011;41184;44.272;19.890;2022-10-22T11:20:49;18.38;;;10.75;;
55320;SDS011;41184;44.272;19.890;2022-10-22T11:23:20;17.98;;;9.70;;
55320;SDS011;41184;44.272;19.890;2022-10-22T11:28:23;23.42;;;10.48;;
55320;SDS011;41184;44.272;19.890;2022-10-22T11:30:52;19.27;;;12.68;;
55320;SDS011;41184;44.272;19.890;2022-10-22T11:33:20;19.05;;;14.02;;
55320;SDS011;41184;44.272;19.890;2022-10-22T11:35:48;12.27;;;8.95;;
55320;SDS011;41184;44.272;19.890;2022-10-22T11:38:15;17.17;;;11.82;;
55320;SDS011;41184;44.272;19.890;2022-10-22T11:43:28;16.85;;;8.20;;
55320;SDS011;41184;44.272;19.890;2022-10-22T11:45:56;13.20;;;7.85;;
55320;SDS011;41184;44.272;19.890;2022-10-22T11:48:25;18.30;;;11.13;;
55320;SDS011;41184;44.272;19.890;2022-10-22T11:50:59;23.55;;;16.20;;
55320;SDS011;41184;44.272;19.890;2022-10-22T11:53:30;20.88;;;15.82;;
55320;SDS011;41184;44.272;19.890;2022-10-22T11:55:57;19.60;;;12.43;;
55320;SDS011;41184;44.272;19.890;2022-10-22T12:03:36;18.23;;;9.80;;
55320;SDS011;41184;44.272;19.890;2022-10-22T12:11:13;14.23;;;7.95;;
55320;SDS011;41184;44.272;19.890;2022-10-22T12:16:25;14.02;;;7.25;;
55320;SDS011;41184;44.272;19.890;2022-10-22T12:18:54;15.55;;;7.30;;
55320;SDS011;41184;44.272;19.890;2022-10-22T12:21:21;21.17;;;10.23;;
55320;SDS011;41184;44.272;19.890;2022-10-22T12:23:47;14.93;;;8.27;;
55320;SDS011;41184;44.272;19.890;2022-10-22T12:26:22;13.00;;;6.90;;
55320;SDS011;41184;44.272;19.890;2022-10-22T12:28:48;20.85;;;9.27;;
55320;SDS011;41184;44.272;19.890;2022-10-22T12:31:15;18.27;;;9.80;;
55320;SDS011;41184;44.272;19.890;2022-10-22T12:33:41;47.47;;;21.75;;
55320;SDS011;41184;44.272;19.890;2022-10-22T12:36:14;30.17;;;15.45;;
55320;SDS011;41184;44.272;19.890;2022-10-22T12:38:41;61.53;;;18.52;;
55320;SDS011;41184;44.272;19.890;2022-10-22T12:41:11;36.97;;;17.10;;
55320;SDS011;41184;44.272;19.890;2022-10-22T12:43:37;42.47;;;18.13;;
55320;SDS011;41184;44.272;19.890;2022-10-22T12:46:04;30.30;;;15.85;;
55320;SDS011;41184;44.272;19.890;2022-10-22T12:48:37;25.75;;;15.85;;
55320;SDS011;41184;44.272;19.890;2022-10-22T12:51:05;43.58;;;27.15;;
55320;SDS011;41184;44.272;19.890;2022-10-22T12:53:37;38.38;;;23.42;;
55320;SDS011;41184;44.272;19.890;2022-10-22T12:56:05;59.50;;;37.20;;
55320;SDS011;41184;44.272;19.890;2022-10-22T12:58:46;78.47;;;52.33;;
55320;SDS011;41184;44.272;19.890;2022-10-22T13:03:43;120.47;;;80.50;;
55320;SDS011;41184;44.272;19.890;2022-10-22T13:11:32;131.93;;;106.28;;
55320;SDS011;41184;44.272;19.890;2022-10-22T13:14:03;120.97;;;95.47;;
55320;SDS011;41184;44.272;19.890;2022-10-22T13:16:29;181.20;;;153.57;;
55320;SDS011;41184;44.272;19.890;2022-10-22T13:18:57;232.68;;;206.65;;
55320;SDS011;41184;44.272;19.890;2022-10-22T13:21:38;189.02;;;168.00;;
55320;SDS011;41184;44.272;19.890;2022-10-22T13:24:21;153.43;;;135.00;;
55320;SDS011;41184;44.272;19.890;2022-10-22T13:26:48;146.73;;;118.70;;
55320;SDS011;41184;44.272;19.890;2022-10-22T13:29:15;111.60;;;92.55;;
55320;SDS011;41184;44.272;19.890;2022-10-22T13:34:13;81.40;;;64.32;;
55320;SDS011;41184;44.272;19.890;2022-10-22T13:36:40;65.90;;;49.45;;
55320;SDS011;41184;44.272;19.890;2022-10-22T13:39:09;56.50;;;43.60;;
55320;SDS011;41184;44.272;19.890;2022-10-22T13:41:37;51.88;;;38.92;;
55320;SDS011;41184;44.272;19.890;2022-10-22T13:44:04;48.05;;;36.78;;
55320;SDS011;41184;44.272;19.890;2022-10-22T13:46:30;48.53;;;31.70;;
55320;SDS011;41184;44.272;19.890;2022-10-22T13:48:57;41.17;;;30.98;;
55320;SDS011;41184;44.272;19.890;2022-10-22T13:51:33;41.35;;;30.17;;
55320;SDS011;41184;44.272;19.890;2022-10-22T13:54:00;42.55;;;30.88;;
55320;SDS011;41184;44.272;19.890;2022-10-22T13:56:27;43.20;;;31.73;;
55320;SDS011;41184;44.272;19.890;2022-10-22T13:58:53;38.78;;;30.38;;
55320;SDS011;41184;44.272;19.890;2022-10-22T14:01:24;42.47;;;32.53;;
55320;SDS011;41184;44.272;19.890;2022-10-22T14:06:17;47.75;;;32.47;;
55320;SDS011;41184;44.272;19.890;2022-10-22T14:08:44;42.72;;;31.40;;
55320;SDS011;41184;44.272;19.890;2022-10-22T14:11:11;37.38;;;26.50;;
55320;SDS011;41184;44.272;19.890;2022-10-22T14:13:37;36.42;;;24.98;;
55320;SDS011;41184;44.272;19.890;2022-10-22T14:16:04;37.60;;;25.23;;
55320;SDS011;41184;44.272;19.890;2022-10-22T14:18:31;32.20;;;24.52;;
55320;SDS011;41184;44.272;19.890;2022-10-22T14:20:58;46.17;;;33.22;;
55320;SDS011;41184;44.272;19.890;2022-10-22T14:23:28;31.60;;;25.02;;
55320;SDS011;41184;44.272;19.890;2022-10-22T14:25:55;88.70;;;71.43;;
55320;SDS011;41184;44.272;19.890;2022-10-22T14:28:21;37.05;;;27.20;;
55320;SDS011;41184;44.272;19.890;2022-10-22T14:30:47;30.45;;;25.35;;
55320;SDS011;41184;44.272;19.890;2022-10-22T14:33:18;31.55;;;25.63;;
55320;SDS011;41184;44.272;19.890;2022-10-22T14:35:44;34.03;;;20.55;;
55320;SDS011;41184;44.272;19.890;2022-10-22T14:38:12;32.80;;;24.52;;
55320;SDS011;41184;44.272;19.890;2022-10-22T14:40:38;32.08;;;23.48;;
55320;SDS011;41184;44.272;19.890;2022-10-22T14:43:06;29.23;;;22.98;;
55320;SDS011;41184;44.272;19.890;2022-10-22T14:45:32;32.58;;;22.95;;
55320;SDS011;41184;44.272;19.890;2022-10-22T14:47:58;38.45;;;23.95;;
55320;SDS011;41184;44.272;19.890;2022-10-22T14:50:24;33.10;;;18.33;;
55320;SDS011;41184;44.272;19.890;2022-10-22T14:52:50;42.00;;;25.85;;
55320;SDS011;41184;44.272;19.890;2022-10-22T14:55:17;34.60;;;24.73;;
55320;SDS011;41184;44.272;19.890;2022-10-22T14:57:44;37.45;;;21.13;;
55320;SDS011;41184;44.272;19.890;2022-10-22T15:00:11;41.90;;;21.05;;
55320;SDS011;41184;44.272;19.890;2022-10-22T15:02:38;38.30;;;22.08;;
55320;SDS011;41184;44.272;19.890;2022-10-22T15:05:04;43.20;;;23.98;;
55320;SDS011;41184;44.272;19.890;2022-10-22T15:07:30;45.88;;;27.88;;
55320;SDS011;41184;44.272;19.890;2022-10-22T15:09:56;45.33;;;30.83;;
55320;SDS011;41184;44.272;19.890;2022-10-22T15:12:23;54.15;;;32.83;;
55320;SDS011;41184;44.272;19.890;2022-10-22T15:14:49;50.95;;;33.92;;
55320;SDS011;41184;44.272;19.890;2022-10-22T15:17:15;35.95;;;22.65;;
55320;SDS011;41184;44.272;19.890;2022-10-22T15:19:42;65.97;;;40.75;;
55320;SDS011;41184;44.272;19.890;2022-10-22T15:22:08;43.75;;;31.00;;
55320;SDS011;41184;44.272;19.890;2022-10-22T15:24:35;71.78;;;44.88;;
55320;SDS011;41184;44.272;19.890;2022-10-22T15:27:01;50.08;;;34.38;;
55320;SDS011;41184;44.272;19.890;2022-10-22T15:29:28;55.60;;;35.13;;
55320;SDS011;41184;44.272;19.890;2022-10-22T15:31:55;61.80;;;42.33;;
55320;SDS011;41184;44.272;19.890;2022-10-22T15:34:26;67.00;;;46.22;;
55320;SDS011;41184;44.272;19.890;2022-10-22T15:36:53;67.72;;;44.97;;
55320;SDS011;41184;44.272;19.890;2022-10-22T15:39:20;66.10;;;42.72;;
55320;SDS011;41184;44.272;19.890;2022-10-22T15:41:47;55.90;;;38.78;;
55320;SDS011;41184;44.272;19.890;2022-10-22T15:44:14;57.33;;;40.97;;
55320;SDS011;41184;44.272;19.890;2022-10-22T15:46:41;55.75;;;37.13;;
55320;SDS011;41184;44.272;19.890;2022-10-22T15:49:07;47.05;;;31.67;;
55320;SDS011;41184;44.272;19.890;2022-10-22T15:51:33;43.47;;;30.15;;
55320;SDS011;41184;44.272;19.890;2022-10-22T15:53:59;50.25;;;35.40;;
55320;SDS011;41184;44.272;19.890;2022-10-22T15:56:26;54.88;;;40.40;;
55320;SDS011;41184;44.272;19.890;2022-10-22T15:58:57;81.18;;;57.95;;
55320;SDS011;41184;44.272;19.890;2022-10-22T16:01:23;76.65;;;51.17;;
55320;SDS011;41184;44.272;19.890;2022-10-22T16:03:49;67.35;;;47.83;;
55320;SDS011;41184;44.272;19.890;2022-10-22T16:06:31;67.32;;;47.35;;
55320;SDS011;41184;44.272;19.890;2022-10-22T16:08:58;58.28;;;43.70;;
55320;SDS011;41184;44.272;19.890;2022-10-22T16:11:25;50.90;;;37.47;;
55320;SDS011;41184;44.272;19.890;2022-10-22T16:13:55;48.67;;;37.80;;
55320;SDS011;41184;44.272;19.890;2022-10-22T16:16:22;50.28;;;35.95;;
55320;SDS011;41184;44.272;19.890;2022-10-22T16:18:49;66.28;;;42.33;;
55320;SDS011;41184;44.272;19.890;2022-10-22T16:21:15;67.82;;;44.63;;
55320;SDS011;41184;44.272;19.890;2022-10-22T16:23:41;67.60;;;45.53;;
55320;SDS011;41184;44.272;19.890;2022-10-22T16:26:08;75.50;;;56.00;;